Time;durP1;ratioP1;P1;durP2;ratioP2;P2;SDS_P1;SDS_P2;PMS_P1;PMS_P2;Temp;Humidity;BMP_temperature;BMP_pressure;BME280_temperature;BME280_humidity;BME280_pressure;Samples;Min_cycle;Max_cycle;Signal;HPM_P1;HPM_P2
2022/12/12 00:01:42;;;;;;;14.98;8.52;;;10.20;92.30;;;;;;5093286;28;20496;-69
2022/12/12 00:04:09;;;;;;;17.83;10.00;;;;;;;;;;5094064;28;20131;-68
2022/12/12 00:06:34;;;;;;;20.00;10.25;;;10.20;93.30;;;;;;5092349;28;20080;-67
2022/12/12 00:09:00;;;;;;;18.45;9.88;;;;;;;;;;5089969;28;20224;-68
2022/12/12 00:11:26;;;;;;;19.58;10.15;;;10.40;92.30;;;;;;5061140;28;20039;-68
2022/12/12 00:13:53;;;;;;;16.77;8.82;;;;;;;;;;5092481;28;20044;-68
2022/12/12 00:16:19;;;;;;;18.83;9.98;;;10.30;93.40;;;;;;5097511;28;20070;-68
2022/12/12 00:18:45;;;;;;;17.15;9.18;;;;;;;;;;5097012;28;20048;-68
2022/12/12 00:21:15;;;;;;;19.13;9.98;;;10.30;93.30;;;;;;5094730;28;20044;-67
2022/12/12 00:23:41;;;;;;;19.70;10.13;;;10.10;93.30;;;;;;5095064;28;20048;-67
2022/12/12 00:26:28;;;;;;;17.85;9.30;;;10.10;92.00;;;;;;5095735;28;20501;-68
2022/12/12 00:28:54;;;;;;;19.90;10.55;;;;;;;;;;5081608;28;20119;-67
2022/12/12 00:31:20;;;;;;;16.45;9.07;;;10.40;92.30;;;;;;5091802;28;20040;-68
2022/12/12 00:33:47;;;;;;;16.48;9.38;;;10.30;93.50;;;;;;5096824;28;20105;-68
2022/12/12 00:36:13;;;;;;;18.35;9.95;;;10.10;93.30;;;;;;5096843;28;20048;-67
2022/12/12 00:38:39;;;;;;;19.05;9.68;;;10.60;93.50;;;;;;5097028;28;20052;-67
2022/12/12 00:41:05;;;;;;;16.10;9.35;;;;;;;;;;5094484;28;20051;-68
2022/12/12 00:43:31;;;;;;;16.23;9.10;;;10.20;93.30;;;;;;5096934;28;20508;-68
2022/12/12 00:45:58;;;;;;;18.30;10.10;;;10.50;91.90;;;;;;5097491;28;20044;-67
2022/12/12 00:48:23;;;;;;;16.38;9.45;;;10.30;93.40;;;;;;5066506;28;20437;-66
2022/12/12 00:50:49;;;;;;;18.13;9.77;;;10.30;93.30;;;;;;5057404;28;20049;-68
2022/12/12 00:53:15;;;;;;;17.73;9.63;;;;;;;;;;5095104;28;20443;-68
2022/12/12 00:55:41;;;;;;;16.30;9.57;;;10.20;93.40;;;;;;5097049;28;20052;-66
2022/12/12 00:58:07;;;;;;;20.25;10.25;;;10.10;92.20;;;;;;5095639;28;20048;-63
2022/12/12 01:00:33;;;;;;;17.67;9.32;;;;;;;;;;5096540;28;20043;-67
2022/12/12 01:02:59;;;;;;;15.35;9.25;;;10.10;93.30;;;;;;5094127;28;20044;-68
2022/12/12 01:05:25;;;;;;;17.38;9.05;;;10.30;93.40;;;;;;5066106;28;20044;-68
2022/12/12 01:07:50;;;;;;;18.52;9.80;;;10.30;93.40;;;;;;5056767;28;20127;-68
2022/12/12 01:10:16;;;;;;;15.88;9.15;;;10.40;92.30;;;;;;5053034;28;20040;-68
2022/12/12 01:12:42;;;;;;;16.48;9.60;;;10.00;93.30;;;;;;5093746;28;20040;-70
2022/12/12 01:15:08;;;;;;;17.88;9.88;;;10.50;92.30;;;;;;5096060;28;20132;-68
2022/12/12 01:17:36;;;;;;;17.17;9.23;;;10.40;93.40;;;;;;5095924;28;20508;-67
2022/12/12 01:20:15;;;;;;;17.38;9.75;;;10.40;93.40;;;;;;5096195;28;20048;-67
2022/12/12 01:22:41;;;;;;;18.42;10.23;;;10.30;93.40;;;;;;5050955;28;20062;-68
2022/12/12 01:25:07;;;;;;;14.95;9.60;;;10.20;93.40;;;;;;5093428;28;20040;-67
2022/12/12 01:27:32;;;;;;;16.58;9.73;;;10.20;93.30;;;;;;5077875;28;20048;-67
2022/12/12 01:30:00;;;;;;;17.95;9.70;;;10.30;93.30;;;;;;5094340;28;20115;-68
2022/12/12 01:32:29;;;;;;;18.73;10.27;;;10.30;93.30;;;;;;5093476;28;21341;-68
2022/12/12 01:34:55;;;;;;;15.15;8.88;;;;;;;;;;5095035;28;20090;-68
2022/12/12 01:37:21;;;;;;;19.25;9.48;;;;;;;;;;5096376;28;20101;-66
2022/12/12 01:39:47;;;;;;;18.35;9.73;;;10.30;93.30;;;;;;5067921;28;20036;-67
2022/12/12 01:42:15;;;;;;;19.45;10.18;;;10.10;93.30;;;;;;5096114;28;20387;-68
2022/12/12 01:44:45;;;;;;;16.50;9.82;;;10.40;93.40;;;;;;5093035;28;20474;-63
2022/12/12 01:47:15;;;;;;;18.25;10.38;;;10.30;93.30;;;;;;5095701;28;20459;-67
2022/12/12 01:49:43;;;;;;;17.88;10.20;;;9.90;93.30;;;;;;5095213;28;20142;-63
2022/12/12 01:52:10;;;;;;;16.02;9.88;;;;;;;;;;5077758;28;20048;-67
2022/12/12 01:54:39;;;;;;;16.27;10.23;;;10.20;92.00;;;;;;5074703;28;20032;-68
2022/12/12 01:57:07;;;;;;;17.42;9.98;;;10.30;93.30;;;;;;5072759;28;20101;-65
2022/12/12 01:59:33;;;;;;;19.00;9.65;;;10.30;93.40;;;;;;5057658;28;20059;-67
2022/12/12 02:01:58;;;;;;;17.50;9.75;;;10.30;92.20;;;;;;5060843;28;20040;-66
2022/12/12 02:04:25;;;;;;;16.40;9.05;;;10.20;92.10;;;;;;5091406;28;20125;-66
2022/12/12 02:06:51;;;;;;;18.85;9.25;;;10.00;92.20;;;;;;5060359;28;20044;-67
2022/12/12 02:09:17;;;;;;;16.58;9.52;;;;;;;;;;5077598;28;20098;-68
2022/12/12 02:11:45;;;;;;;17.85;8.68;;;;;;;;;;5093100;28;20044;-69
2022/12/12 02:14:12;;;;;;;15.55;9.38;;;10.30;93.40;;;;;;5073867;28;20097;-67
2022/12/12 02:16:46;;;;;;;17.08;9.48;;;10.30;93.30;;;;;;5074963;28;20512;-68
2022/12/12 02:19:39;;;;;;;19.02;10.55;;;10.20;93.40;;;;;;5077090;28;20051;-66
2022/12/12 02:22:33;;;;;;;16.42;8.98;;;10.30;92.30;;;;;;5095122;28;20109;-68
2022/12/12 02:25:30;;;;;;;15.75;9.30;;;10.00;92.10;;;;;;5035128;28;20139;-66
2022/12/12 02:28:02;;;;;;;18.48;9.65;;;10.10;93.30;;;;;;5095489;28;20040;-68
2022/12/12 02:30:51;;;;;;;15.90;8.98;;;10.20;93.30;;;;;;5063651;28;20128;-67
2022/12/12 02:33:31;;;;;;;16.63;9.27;;;10.40;93.30;;;;;;5048940;28;20126;-67
2022/12/12 02:36:10;;;;;;;18.40;9.77;;;10.20;93.30;;;;;;5074251;28;20089;-66
2022/12/12 02:38:57;;;;;;;16.42;9.70;;;10.20;93.30;;;;;;5074869;28;20371;-68
2022/12/12 02:41:36;;;;;;;16.13;9.25;;;10.30;93.30;;;;;;5094699;28;20044;-68
2022/12/12 02:44:09;;;;;;;16.25;9.23;;;10.50;93.40;;;;;;5061456;28;20405;-68
2022/12/12 02:46:55;;;;;;;18.70;9.73;;;9.80;93.20;;;;;;5062439;28;20060;-68
2022/12/12 02:49:34;;;;;;;15.05;9.23;;;10.50;91.60;;;;;;5061229;28;20292;-67
2022/12/12 02:52:00;;;;;;;16.25;8.90;;;10.30;93.30;;;;;;5077119;28;20044;-63
2022/12/12 02:54:26;;;;;;;17.60;10.10;;;10.20;92.10;;;;;;5094417;28;20047;-67
2022/12/12 02:56:56;;;;;;;18.85;9.63;;;;;;;;;;5087140;28;20424;-67
2022/12/12 02:59:21;;;;;;;17.17;9.40;;;10.20;93.30;;;;;;5094327;28;20047;-62
2022/12/12 03:02:06;;;;;;;18.42;10.45;;;10.20;92.20;;;;;;5094916;28;20400;-63
2022/12/12 03:08:05;;;;;;;18.27;9.85;;;10.10;92.20;;;;;;5094246;28;20044;-67
2022/12/12 03:10:41;;;;;;;16.05;9.82;;;10.20;92.10;;;;;;5094092;28;20097;-63
2022/12/12 03:13:25;;;;;;;17.23;9.80;;;10.30;93.30;;;;;;5094156;28;20044;-64
2022/12/12 03:16:00;;;;;;;15.30;8.68;;;10.30;93.40;;;;;;5091145;28;20041;-65
2022/12/12 03:18:33;;;;;;;16.30;8.23;;;;;;;;;;5093700;28;20051;-65
2022/12/12 03:20:59;;;;;;;17.50;9.88;;;10.20;92.20;;;;;;5069196;28;20048;-66
2022/12/12 03:23:27;;;;;;;17.73;10.13;;;10.20;93.30;;;;;;5057827;28;20040;-65
2022/12/12 03:25:53;;;;;;;16.40;9.77;;;;;;;;;;5038880;28;20087;-65
2022/12/12 03:28:24;;;;;;;15.85;9.48;;;10.30;93.40;;;;;;5089661;28;20175;-65
2022/12/12 03:30:54;;;;;;;19.80;10.50;;;10.20;93.20;;;;;;5075944;28;20063;-65
2022/12/12 03:33:27;;;;;;;18.10;10.50;;;10.30;92.50;;;;;;5075582;28;20048;-66
2022/12/12 03:36:03;;;;;;;16.00;9.65;;;10.20;93.10;;;;;;5076822;28;20079;-65
2022/12/12 03:38:31;;;;;;;18.83;10.85;;;10.20;93.10;;;;;;5041904;28;20070;-65
2022/12/12 03:41:05;;;;;;;17.38;10.40;;;10.10;93.10;;;;;;5035901;28;20041;-66
2022/12/12 03:43:51;;;;;;;18.92;10.73;;;10.30;91.80;;;;;;5035902;28;20128;-65
2022/12/12 03:46:28;;;;;;;19.77;10.95;;;10.00;93.00;;;;;;5036137;28;20064;-65
2022/12/12 03:49:23;;;;;;;17.58;9.95;;;10.10;91.30;;;;;;5045073;28;20056;-65
2022/12/12 03:51:56;;;;;;;20.73;11.07;;;10.00;91.80;;;;;;5061574;28;20464;-65
2022/12/12 03:54:30;;;;;;;16.70;10.40;;;10.30;93.20;;;;;;5062862;28;20578;-68
2022/12/12 03:57:04;;;;;;;17.30;10.45;;;10.10;92.00;;;;;;5035214;28;20045;-68
2022/12/12 03:59:38;;;;;;;19.42;10.57;;;10.10;93.10;;;;;;5087941;28;20059;-68
2022/12/12 04:02:46;;;;;;;17.63;10.52;;;10.10;92.00;;;;;;5043019;28;20051;-67
2022/12/12 04:05:34;;;;;;;19.67;10.68;;;10.10;91.90;;;;;;5091487;28;20040;-68
2022/12/12 04:08:09;;;;;;;19.55;11.15;;;10.10;93.10;;;;;;5073005;28;20051;-68
2022/12/12 04:13:46;;;;;;;18.65;10.43;;;9.70;91.80;;;;;;5051979;28;20056;-66
2022/12/12 04:16:17;;;;;;;18.02;10.00;;;10.10;92.10;;;;;;5053263;28;20045;-66
2022/12/12 04:18:51;;;;;;;17.23;9.85;;;10.30;91.50;;;;;;5042308;28;20055;-68
2022/12/12 04:24:29;;;;;;;18.20;9.88;;;9.90;93.10;;;;;;5077619;28;20060;-67
2022/12/12 04:27:12;;;;;;;16.70;9.65;;;10.00;93.30;;;;;;5076109;28;20119;-67
2022/12/12 04:30:03;;;;;;;18.65;10.32;;;10.20;92.00;;;;;;5074721;28;20044;-68
2022/12/12 04:32:33;;;;;;;18.05;9.82;;;10.00;93.20;;;;;;5059106;28;20044;-68
2022/12/12 04:35:06;;;;;;;17.77;10.73;;;10.00;93.20;;;;;;5058327;28;20051;-68
2022/12/12 04:37:34;;;;;;;16.75;9.75;;;10.10;93.20;;;;;;5092892;28;20048;-68
2022/12/12 04:40:00;;;;;;;19.25;10.35;;;10.00;93.00;;;;;;5053066;28;20111;-68
2022/12/12 04:42:31;;;;;;;17.67;9.95;;;10.00;93.10;;;;;;5075288;28;20452;-65
2022/12/12 04:45:00;;;;;;;18.83;10.65;;;9.60;92.90;;;;;;5069396;28;20049;-68
2022/12/12 04:47:27;;;;;;;18.02;9.95;;;9.70;93.00;;;;;;5019206;28;20057;-69
2022/12/12 04:49:53;;;;;;;20.52;11.05;;;10.20;92.00;;;;;;5055440;28;20060;-64
2022/12/12 04:52:19;;;;;;;20.20;11.20;;;10.00;93.00;;;;;;5092722;28;20122;-65
2022/12/12 04:54:57;;;;;;;19.30;10.30;;;10.00;93.10;;;;;;5058527;28;20032;-68
2022/12/12 04:57:25;;;;;;;19.05;10.13;;;9.90;91.80;;;;;;5075488;28;20040;-68
2022/12/12 04:59:51;;;;;;;16.85;10.75;;;10.00;93.10;;;;;;5056102;28;20056;-68
2022/12/12 05:02:19;;;;;;;19.92;10.73;;;9.90;93.10;;;;;;5084570;28;20037;-68
2022/12/12 05:05:04;;;;;;;20.60;10.63;;;9.90;93.00;;;;;;5087682;28;20044;-68
2022/12/12 05:07:34;;;;;;;18.17;10.23;;;10.00;91.80;;;;;;5076211;28;20039;-68
2022/12/12 05:10:00;;;;;;;19.98;11.57;;;;;;;;;;5059718;28;20111;-66
2022/12/12 05:12:27;;;;;;;16.92;10.45;;;;;;;;;;5078338;28;20048;-67
2022/12/12 05:14:52;;;;;;;20.92;11.52;;;10.00;93.20;;;;;;5078318;28;20082;-69
2022/12/12 05:17:26;;;;;;;20.23;11.18;;;9.90;93.10;;;;;;5078354;28;20419;-64
2022/12/12 05:19:52;;;;;;;19.77;11.18;;;;;;;;;;5056122;28;20044;-66
2022/12/12 05:22:18;;;;;;;19.13;11.07;;;;;;;;;;5095250;28;20044;-67
2022/12/12 05:24:44;;;;;;;21.50;12.18;;;;;;;;;;5096135;28;20062;-68
2022/12/12 05:27:11;;;;;;;20.95;11.48;;;9.80;92.00;;;;;;5076240;28;20059;-68
2022/12/12 05:29:37;;;;;;;20.27;11.95;;;;;;;;;;5087765;28;20046;-66
2022/12/12 05:32:03;;;;;;;20.42;11.13;;;10.00;92.10;;;;;;5074880;28;20389;-67
2022/12/12 05:34:29;;;;;;;20.02;10.90;;;9.80;93.10;;;;;;5093883;28;20036;-68
2022/12/12 05:36:55;;;;;;;19.48;11.20;;;10.20;93.30;;;;;;5073854;28;20047;-68
2022/12/12 05:39:21;;;;;;;18.23;10.60;;;9.80;93.20;;;;;;5056178;28;20053;-68
2022/12/12 05:41:47;;;;;;;18.60;11.30;;;9.80;91.50;;;;;;5071586;28;20044;-66
2022/12/12 05:44:12;;;;;;;18.35;10.98;;;9.90;92.20;;;;;;5095897;28;20071;-69
2022/12/12 05:46:38;;;;;;;18.92;10.95;;;10.20;93.10;;;;;;5096207;28;20539;-68
2022/12/12 05:49:04;;;;;;;19.50;10.68;;;9.90;93.30;;;;;;5095238;28;20062;-66
2022/12/12 05:51:30;;;;;;;19.40;10.85;;;10.00;92.90;;;;;;5093107;28;20056;-68
2022/12/12 05:53:56;;;;;;;21.17;11.70;;;9.90;92.10;;;;;;5073433;28;20044;-67
2022/12/12 05:56:22;;;;;;;20.60;12.32;;;;;;;;;;5065951;28;20036;-67
2022/12/12 05:58:47;;;;;;;21.80;11.90;;;9.90;91.90;;;;;;5095524;28;20082;-66
2022/12/12 06:01:13;;;;;;;19.55;11.27;;;10.10;92.90;;;;;;5095516;28;20458;-69
2022/12/12 06:03:39;;;;;;;19.73;11.02;;;10.00;93.40;;;;;;5074463;28;20048;-68
2022/12/12 06:06:05;;;;;;;20.83;11.43;;;10.00;93.10;;;;;;5095437;28;20048;-69
2022/12/12 06:08:30;;;;;;;20.63;11.13;;;9.90;93.10;;;;;;5075970;28;20127;-68
2022/12/12 06:10:56;;;;;;;20.92;11.90;;;10.00;92.10;;;;;;5072869;28;20094;-67
2022/12/12 06:13:22;;;;;;;19.90;11.20;;;;;;;;;;5057517;28;20048;-68
2022/12/12 06:15:48;;;;;;;22.40;11.40;;;9.80;92.10;;;;;;5095284;28;20440;-68
2022/12/12 06:18:14;;;;;;;21.25;11.32;;;10.00;93.10;;;;;;5095647;28;20040;-68
2022/12/12 06:20:40;;;;;;;21.65;11.50;;;;;;;;;;5095644;28;20218;-67
2022/12/12 06:23:06;;;;;;;20.13;10.93;;;10.20;93.20;;;;;;5092353;28;20083;-66
2022/12/12 06:25:32;;;;;;;22.08;11.52;;;10.00;93.10;;;;;;5094980;28;20040;-68
2022/12/12 06:27:57;;;;;;;18.95;10.88;;;10.00;93.20;;;;;;5083348;28;20051;-67
2022/12/12 06:30:23;;;;;;;22.55;11.60;;;9.80;93.10;;;;;;5094620;28;20389;-68
2022/12/12 06:32:49;;;;;;;21.10;12.18;;;10.00;93.20;;;;;;5090135;28;20051;-67
2022/12/12 06:35:15;;;;;;;20.23;11.73;;;;;;;;;;5091067;28;20040;-67
2022/12/12 06:37:41;;;;;;;22.20;13.00;;;;;;;;;;5073870;28;20444;-66
2022/12/12 06:40:07;;;;;;;20.77;12.23;;;10.10;92.00;;;;;;5074192;28;20047;-67
2022/12/12 06:42:33;;;;;;;21.30;11.50;;;9.80;92.00;;;;;;5074513;28;20501;-67
2022/12/12 06:44:59;;;;;;;21.35;11.50;;;;;;;;;;5062869;28;20128;-67
2022/12/12 06:47:25;;;;;;;22.50;12.02;;;;;;;;;;5082898;28;20040;-65
2022/12/12 06:49:51;;;;;;;19.35;10.95;;;9.90;91.60;;;;;;5094426;28;20040;-68
2022/12/12 06:52:16;;;;;;;22.27;11.45;;;10.00;93.10;;;;;;5094819;28;20470;-68
2022/12/12 06:54:43;;;;;;;22.00;12.50;;;;;;;;;;5090664;28;20046;-68
2022/12/12 06:57:09;;;;;;;20.75;11.68;;;;;;;;;;5092317;28;20426;-68
2022/12/12 06:59:35;;;;;;;20.48;11.38;;;;;;;;;;5094130;28;20135;-68
2022/12/12 07:02:00;;;;;;;21.73;12.18;;;10.00;93.10;;;;;;5051938;28;20052;-68
2022/12/12 07:04:26;;;;;;;21.30;11.70;;;10.20;93.10;;;;;;5079732;28;20571;-68
2022/12/12 07:06:53;;;;;;;20.02;11.80;;;10.00;93.00;;;;;;5091668;28;20051;-68
2022/12/12 07:09:19;;;;;;;20.83;12.27;;;10.00;93.00;;;;;;5093924;28;20055;-68
2022/12/12 07:11:45;;;;;;;20.63;11.85;;;10.10;93.10;;;;;;5071950;28;20040;-69
2022/12/12 07:14:11;;;;;;;19.40;10.80;;;10.00;93.10;;;;;;5093869;28;20100;-67
2022/12/12 07:16:37;;;;;;;21.58;12.50;;;9.90;93.00;;;;;;5094149;28;20056;-68
2022/12/12 07:19:03;;;;;;;20.90;11.52;;;10.00;92.00;;;;;;5070126;28;20429;-67
2022/12/12 07:21:28;;;;;;;22.90;11.65;;;9.90;93.10;;;;;;5073762;28;20040;-68
2022/12/12 07:23:55;;;;;;;21.45;11.60;;;9.90;93.10;;;;;;5092401;28;20043;-68
2022/12/12 07:26:22;;;;;;;18.92;11.27;;;10.10;93.20;;;;;;5057549;28;20402;-69
2022/12/12 07:28:48;;;;;;;19.65;11.70;;;9.80;93.30;;;;;;5093938;28;20118;-70
2022/12/12 07:31:15;;;;;;;18.08;10.18;;;10.20;93.20;;;;;;5090760;28;20105;-69
2022/12/12 07:33:42;;;;;;;19.70;10.63;;;;;;;;;;5093549;28;20051;-70
2022/12/12 07:36:08;;;;;;;20.35;10.75;;;;;;;;;;5067781;28;20051;-67
2022/12/12 07:38:35;;;;;;;21.15;11.43;;;10.20;93.40;;;;;;5092185;28;20095;-68
2022/12/12 07:41:05;;;;;;;20.48;11.20;;;10.20;93.60;;;;;;5093793;28;20409;-69
2022/12/12 07:43:31;;;;;;;23.45;11.25;;;;;;;;;;5093438;28;20493;-69
2022/12/12 07:45:57;;;;;;;20.95;11.77;;;;;;;;;;5093534;28;20040;-69
2022/12/12 07:48:23;;;;;;;18.45;11.05;;;9.90;93.20;;;;;;5072938;28;20098;-71
2022/12/12 07:50:49;;;;;;;20.42;10.52;;;9.80;93.20;;;;;;5093363;28;20088;-70
2022/12/12 07:53:15;;;;;;;20.65;10.50;;;10.30;93.30;;;;;;5066211;28;20045;-70
2022/12/12 07:55:40;;;;;;;21.13;11.45;;;10.30;93.30;;;;;;5053427;28;20124;-70
2022/12/12 07:58:06;;;;;;;22.60;11.05;;;10.40;93.40;;;;;;5080526;28;20404;-70
2022/12/12 08:00:32;;;;;;;18.73;10.35;;;10.10;92.30;;;;;;5093289;28;20454;-70
2022/12/12 08:02:58;;;;;;;20.55;11.18;;;;;;;;;;5093583;28;20044;-70
2022/12/12 08:05:24;;;;;;;21.65;11.35;;;10.40;93.50;;;;;;5093337;28;20425;-70
2022/12/12 08:07:50;;;;;;;19.08;10.82;;;10.20;92.30;;;;;;5092181;28;20097;-69
2022/12/12 08:10:16;;;;;;;19.45;11.98;;;10.40;93.40;;;;;;5065322;28;20070;-70
2022/12/12 08:12:41;;;;;;;20.45;12.07;;;10.20;93.40;;;;;;5053292;28;20045;-70
2022/12/12 08:15:08;;;;;;;20.77;11.35;;;10.20;92.60;;;;;;5053266;28;20545;-71
2022/12/12 08:17:34;;;;;;;21.75;11.80;;;10.10;93.40;;;;;;5031583;28;20083;-69
2022/12/12 08:20:00;;;;;;;19.50;11.35;;;10.30;92.20;;;;;;5087400;28;20075;-70
2022/12/12 08:22:26;;;;;;;19.05;11.20;;;10.20;93.30;;;;;;5093387;28;20040;-70
2022/12/12 08:24:51;;;;;;;21.35;11.65;;;10.00;93.20;;;;;;5066001;28;20489;-70
2022/12/12 08:27:17;;;;;;;22.20;12.20;;;10.40;93.30;;;;;;5065517;28;20471;-70
2022/12/12 08:29:43;;;;;;;20.65;11.18;;;10.40;93.40;;;;;;5075245;28;20055;-70
2022/12/12 08:32:09;;;;;;;22.90;12.63;;;10.30;93.20;;;;;;5092956;28;20115;-70
2022/12/12 08:34:34;;;;;;;19.10;11.63;;;10.20;93.20;;;;;;5092785;28;20044;-69
2022/12/12 08:37:00;;;;;;;19.95;11.48;;;9.90;93.10;;;;;;5077776;28;20118;-70
2022/12/12 08:39:26;;;;;;;25.27;12.65;;;10.00;93.10;;;;;;5092999;28;20048;-69
2022/12/12 08:41:53;;;;;;;22.38;12.55;;;10.40;93.20;;;;;;5095277;28;20044;-69
2022/12/12 08:44:19;;;;;;;21.85;11.90;;;10.30;93.20;;;;;;5081633;28;20121;-70
2022/12/12 08:46:44;;;;;;;21.67;12.30;;;10.30;93.20;;;;;;5058423;28;20048;-69
2022/12/12 08:49:10;;;;;;;20.40;12.43;;;10.40;93.30;;;;;;5087054;28;20063;-68
2022/12/12 08:51:39;;;;;;;21.95;12.32;;;10.10;92.10;;;;;;5096904;28;20040;-69
2022/12/12 08:54:05;;;;;;;25.52;12.68;;;;;;;;;;5097334;28;20051;-66
2022/12/12 08:56:32;;;;;;;22.20;12.80;;;;;;;;;;5096460;28;20076;-69
2022/12/12 08:58:57;;;;;;;24.13;13.60;;;10.50;93.10;;;;;;5093969;28;20075;-68
2022/12/12 09:01:24;;;;;;;23.27;13.20;;;10.20;93.20;;;;;;5074199;28;20071;-68
2022/12/12 09:03:50;;;;;;;22.98;12.85;;;10.20;91.90;;;;;;5096670;28;20055;-68
2022/12/12 09:06:16;;;;;;;23.95;13.13;;;10.30;93.00;;;;;;5095417;28;20087;-69
2022/12/12 09:08:42;;;;;;;22.20;13.30;;;10.50;93.00;;;;;;5093806;28;20132;-69
2022/12/12 09:11:08;;;;;;;22.00;12.10;;;10.40;93.00;;;;;;5095366;28;20040;-69
2022/12/12 09:13:34;;;;;;;26.02;13.35;;;10.30;91.90;;;;;;5095140;28;20086;-69
2022/12/12 09:16:00;;;;;;;29.00;14.18;;;10.00;92.90;;;;;;5095399;28;20040;-68
2022/12/12 09:18:26;;;;;;;28.33;14.75;;;;;;;;;;5065861;28;20044;-70
2022/12/12 09:20:52;;;;;;;25.45;13.63;;;10.40;93.00;;;;;;5086162;28;20040;-69
2022/12/12 09:23:19;;;;;;;25.02;13.60;;;;;;;;;;5095931;28;20046;-68
2022/12/12 09:25:44;;;;;;;21.50;12.98;;;10.40;92.90;;;;;;5095942;28;20051;-69
2022/12/12 09:28:11;;;;;;;22.77;13.48;;;10.30;92.90;;;;;;5095870;28;20044;-68
2022/12/12 09:30:38;;;;;;;27.10;14.23;;;;;;;;;;5093362;28;20063;-69
2022/12/12 09:33:04;;;;;;;24.85;13.95;;;;;;;;;;5095780;28;20040;-69
2022/12/12 09:35:30;;;;;;;23.25;13.75;;;;;;;;;;5060774;28;20048;-68
2022/12/12 09:37:56;;;;;;;25.90;13.13;;;10.40;92.90;;;;;;5092554;28;20096;-66
2022/12/12 09:40:38;;;;;;;22.48;12.55;;;10.20;91.00;;;;;;5092057;28;20456;-68
2022/12/12 09:43:03;;;;;;;24.95;13.23;;;10.40;91.80;;;;;;5077927;28;20417;-67
2022/12/12 09:45:29;;;;;;;26.77;13.88;;;10.30;91.60;;;;;;5095843;28;20062;-68
2022/12/12 09:47:57;;;;;;;26.40;14.38;;;10.40;91.40;;;;;;5056671;28;20056;-69
2022/12/12 09:50:40;;;;;;;25.65;14.05;;;10.60;91.70;;;;;;5049580;28;20048;-70
2022/12/12 09:53:10;;;;;;;26.40;14.40;;;10.60;91.50;;;;;;5075120;28;20114;-69
2022/12/12 09:55:45;;;;;;;23.75;13.00;;;10.30;91.60;;;;;;5095678;28;20044;-69
2022/12/12 09:58:22;;;;;;;24.30;13.95;;;10.40;92.70;;;;;;5075668;28;20059;-69
2022/12/12 10:00:51;;;;;;;26.45;14.10;;;;;;;;;;5061321;28;20048;-69
2022/12/12 10:03:36;;;;;;;23.50;13.80;;;10.30;92.70;;;;;;5095450;28;20044;-69
2022/12/12 10:06:09;;;;;;;25.83;13.50;;;10.20;92.60;;;;;;5077163;28;20066;-69
2022/12/12 10:08:37;;;;;;;21.90;12.88;;;10.60;92.70;;;;;;5050495;28;20055;-68
2022/12/12 10:11:05;;;;;;;23.40;13.65;;;;;;;;;;5077934;28;20036;-66
2022/12/12 10:13:32;;;;;;;27.38;15.35;;;10.50;92.50;;;;;;5054787;28;20383;-69
2022/12/12 10:16:04;;;;;;;27.10;14.00;;;10.70;92.50;;;;;;5057130;28;20145;-69
2022/12/12 10:18:33;;;;;;;30.85;14.93;;;10.50;92.50;;;;;;5057299;28;20052;-69
2022/12/12 10:21:00;;;;;;;25.30;15.02;;;10.40;91.40;;;;;;5057937;28;20072;-69
2022/12/12 10:23:40;;;;;;;25.75;14.73;;;10.20;92.50;;;;;;5060382;28;20507;-69
2022/12/12 10:26:17;;;;;;;28.85;14.05;;;10.50;90.80;;;;;;5052090;28;20052;-69
2022/12/12 10:28:43;;;;;;;27.98;14.57;;;;;;;;;;5054008;28;20060;-68
2022/12/12 10:31:18;;;;;;;23.02;12.98;;;10.50;92.50;;;;;;5053352;28;20033;-70
2022/12/12 10:34:02;;;;;;;25.90;14.65;;;10.20;90.70;;;;;;5054953;28;20045;-69
2022/12/12 10:36:47;;;;;;;22.45;13.50;;;10.70;90.80;;;;;;5054451;28;20174;-69
2022/12/12 10:39:23;;;;;;;24.92;13.77;;;10.60;91.20;;;;;;5054369;28;20041;-69
2022/12/12 10:41:50;;;;;;;24.40;14.02;;;10.70;91.20;;;;;;5038183;28;20084;-69
2022/12/12 10:44:23;;;;;;;23.85;13.68;;;10.70;92.60;;;;;;5036799;28;20041;-69
2022/12/12 10:47:05;;;;;;;;;;;10.90;91.40;;;;;;5045420;28;20054;-71
2022/12/12 10:49:30;;;;;;;27.00;13.77;;;10.70;91.50;;;;;;5085908;28;19954;-71
2022/12/12 10:51:56;;;;;;;27.77;14.48;;;10.80;92.60;;;;;;5056018;28;20044;-68
2022/12/12 10:54:24;;;;;;;24.38;14.00;;;10.80;92.70;;;;;;5076515;28;20047;-70
2022/12/12 10:57:03;;;;;;;24.45;13.13;;;11.00;90.70;;;;;;5059800;28;20408;-70
2022/12/12 10:59:29;;;;;;;25.08;14.35;;;10.90;91.60;;;;;;5078912;28;20037;-71
2022/12/12 11:01:58;;;;;;;27.45;13.82;;;;;;;;;;5053821;28;20513;-70
2022/12/12 11:04:24;;;;;;;24.63;13.40;;;11.00;92.60;;;;;;5053955;28;20152;-70
2022/12/12 11:06:51;;;;;;;24.70;13.48;;;11.20;92.70;;;;;;5054131;28;20095;-70
2022/12/12 11:09:23;;;;;;;23.50;13.18;;;11.10;92.70;;;;;;5036406;28;20060;-71
2022/12/12 11:12:16;;;;;;;25.52;13.82;;;11.10;91.50;;;;;;5054057;28;20119;-71
2022/12/12 11:14:48;;;;;;;21.10;13.02;;;11.00;90.80;;;;;;5051980;28;20398;-69
2022/12/12 11:17:40;;;;;;;22.63;13.95;;;11.20;91.60;;;;;;5054008;28;20147;-68
2022/12/12 11:20:08;;;;;;;25.95;13.60;;;11.10;92.70;;;;;;5033832;28;20052;-68
2022/12/12 11:22:36;;;;;;;24.63;13.30;;;11.40;91.70;;;;;;5053758;28;20044;-68
2022/12/12 11:25:02;;;;;;;24.55;13.63;;;11.20;92.70;;;;;;5036251;28;20049;-67
2022/12/12 11:27:38;;;;;;;23.88;13.65;;;10.90;92.60;;;;;;5053628;28;20128;-67
2022/12/12 11:30:06;;;;;;;22.90;13.07;;;11.30;92.70;;;;;;5064429;28;20040;-70
2022/12/12 11:32:53;;;;;;;26.95;14.18;;;11.20;91.50;;;;;;5073640;28;20086;-69
2022/12/12 11:35:24;;;;;;;24.38;13.77;;;11.10;91.40;;;;;;5035816;28;20044;-70
2022/12/12 11:37:52;;;;;;;24.77;14.43;;;11.20;92.70;;;;;;5019008;28;20053;-64
2022/12/12 11:40:29;;;;;;;27.42;13.70;;;11.00;92.00;;;;;;5036195;28;20116;-62
2022/12/12 11:43:21;;;;;;;23.38;13.38;;;10.90;91.30;;;;;;5053595;28;20157;-69
2022/12/12 11:46:13;;;;;;;26.77;14.77;;;11.10;92.50;;;;;;5053466;28;20040;-70
2022/12/12 11:48:51;;;;;;;22.13;13.02;;;11.10;92.40;;;;;;5038211;28;20501;-63
2022/12/12 11:51:39;;;;;;;26.63;14.40;;;11.10;90.60;;;;;;5072353;28;20559;-66
2022/12/12 11:54:18;;;;;;;23.85;13.18;;;11.20;90.60;;;;;;5073513;28;20067;-70
2022/12/12 11:56:50;;;;;;;24.10;13.85;;;10.90;90.90;;;;;;5055261;28;20044;-67
2022/12/12 11:59:35;;;;;;;24.92;14.00;;;11.20;91.70;;;;;;5073152;28;20505;-67
2022/12/12 12:02:28;;;;;;;22.58;13.48;;;11.00;91.00;;;;;;5073365;28;20052;-69
2022/12/12 12:04:54;;;;;;;;;;;10.90;91.00;;;;;;5058537;28;20110;-68
2022/12/12 12:07:44;;;;;;;25.02;14.23;;;11.00;92.10;;;;;;5072180;28;19924;-68
2022/12/12 12:10:15;;;;;;;23.52;13.35;;;10.80;92.00;;;;;;5040500;28;20048;-68
2022/12/12 12:12:47;;;;;;;25.35;14.80;;;11.00;90.90;;;;;;5078228;28;20390;-68
2022/12/12 12:15:23;;;;;;;25.42;14.82;;;;;;;;;;5075832;28;20474;-68
2022/12/12 12:18:10;;;;;;;24.25;13.95;;;11.10;90.30;;;;;;5095224;28;20044;-68
2022/12/12 12:20:36;;;;;;;25.95;14.57;;;;;;;;;;5097173;28;20086;-68
2022/12/12 12:23:24;;;;;;;23.20;13.68;;;10.90;90.70;;;;;;5097876;28;20075;-67
2022/12/12 12:26:13;;;;;;;25.10;14.82;;;10.80;89.70;;;;;;5041839;28;20149;-64
2022/12/12 12:28:41;;;;;;;25.48;14.57;;;10.80;90.60;;;;;;5096452;28;20101;-67
2022/12/12 12:31:20;;;;;;;22.33;13.75;;;11.10;90.70;;;;;;5097340;28;20137;-67
2022/12/12 12:34:13;;;;;;;25.52;13.57;;;11.00;90.10;;;;;;5079643;28;20040;-68
2022/12/12 12:36:39;;;;;;;;;;;;;;;;;;5094574;28;20167;-67
2022/12/12 12:39:15;;;;;;;24.00;13.98;;;10.80;91.80;;;;;;5095867;28;19920;-68
2022/12/12 12:41:41;;;;;;;21.25;13.00;;;10.80;91.70;;;;;;5078463;28;20418;-66
2022/12/12 12:44:50;;;;;;;21.08;12.98;;;10.90;90.60;;;;;;5040874;28;20053;-70
2022/12/12 12:47:48;;;;;;;20.45;12.45;;;10.80;89.90;;;;;;4973435;28;20050;-69
2022/12/12 12:50:17;;;;;;;22.08;12.90;;;10.90;89.70;;;;;;4962898;28;20078;-68
2022/12/12 12:52:55;;;;;;;21.88;13.05;;;10.60;91.50;;;;;;4978856;28;20133;-69
2022/12/12 12:55:25;;;;;;;23.23;13.48;;;10.50;90.30;;;;;;4978808;28;20385;-69
2022/12/12 12:57:51;;;;;;;20.00;12.88;;;10.90;91.40;;;;;;4956293;28;20153;-69
2022/12/12 13:00:22;;;;;;;21.02;12.93;;;10.80;91.40;;;;;;4958235;28;20050;-68
2022/12/12 13:02:57;;;;;;;18.95;11.93;;;;;;;;;;4975826;28;20472;-69
2022/12/12 13:05:30;;;;;;;20.70;12.25;;;;;;;;;;4974870;28;20062;-70
2022/12/12 13:07:59;;;;;;;;;;;10.70;90.10;;;;;;4984164;28;20102;-70
2022/12/12 13:10:28;;;;;;;29.10;12.95;;;11.00;89.80;;;;;;4978360;28;19929;-71
2022/12/12 13:12:57;;;;;;;24.58;12.45;;;10.80;88.70;;;;;;4978188;28;20045;-72
2022/12/12 13:15:39;;;;;;;22.35;11.15;;;;;;;;;;4982293;28;20157;-69